createdAt,value
2023-01-30T00:01:02.007Z,2.20
2023-01-30T00:03:30.015Z,2.30
2023-01-30T00:05:57.730Z,2.20
2023-01-30T00:08:25.559Z,2.30
2023-01-30T00:10:53.264Z,2.40
2023-01-30T00:13:21.083Z,2.20
2023-01-30T00:15:49.067Z,2.30
2023-01-30T00:18:17.122Z,2.20
2023-01-30T00:20:44.819Z,2.10
2023-01-30T00:23:12.449Z,2.10
2023-01-30T00:25:40.242Z,2.30
2023-01-30T00:28:08.126Z,2.30
2023-01-30T00:30:35.714Z,2.40
2023-01-30T00:33:03.329Z,2.30
2023-01-30T00:35:31.086Z,2.20
2023-01-30T00:37:59.872Z,2.30
2023-01-30T00:40:29.402Z,2.20
2023-01-30T00:43:15.432Z,2.20
2023-01-30T00:46:04.791Z,2.00
2023-01-30T00:48:33.927Z,2.20
2023-01-30T00:51:01.503Z,2.20
2023-01-30T00:53:29.290Z,1.90
2023-01-30T00:55:57.065Z,1.80
2023-01-30T00:58:26.159Z,1.80
2023-01-30T01:00:54.369Z,1.70
2023-01-30T01:03:22.912Z,1.90
2023-01-30T01:05:50.677Z,1.90
2023-01-30T01:08:18.367Z,2.00
2023-01-30T01:10:45.984Z,2.10
2023-01-30T01:13:13.659Z,2.10
2023-01-30T01:15:41.345Z,1.90
2023-01-30T01:18:09.103Z,2.10
2023-01-30T01:20:36.746Z,2.10
2023-01-30T01:23:04.466Z,1.90
2023-01-30T01:25:32.280Z,1.90
2023-01-30T01:28:01.064Z,2.00
2023-01-30T01:30:28.771Z,2.00
2023-01-30T01:32:57.511Z,1.90
2023-01-30T01:35:25.285Z,2.00
2023-01-30T01:37:56.704Z,1.70
2023-01-30T01:40:43.161Z,1.70
2023-01-30T01:43:25.875Z,1.70
2023-01-30T01:45:58.411Z,1.60
2023-01-30T01:48:55.859Z,1.70
2023-01-30T01:51:31.706Z,1.70
2023-01-30T01:54:13.061Z,1.70
2023-01-30T01:56:45.926Z,1.60
2023-01-30T01:59:35.119Z,1.70
2023-01-30T02:02:09.507Z,1.80
2023-01-30T02:04:59.649Z,1.80
2023-01-30T02:07:29.670Z,1.80
2023-01-30T02:09:58.118Z,1.80
2023-01-30T02:12:26.420Z,1.80
2023-01-30T02:14:57.791Z,1.80
2023-01-30T02:17:25.560Z,1.80
2023-01-30T02:20:12.254Z,1.70
2023-01-30T02:23:17.431Z,1.70
2023-01-30T02:26:24.659Z,1.70
2023-01-30T02:29:17.478Z,1.60
2023-01-30T02:32:26.409Z,1.40
2023-01-30T02:35:18.623Z,1.40
2023-01-30T02:38:13.390Z,1.60
2023-01-30T02:41:14.785Z,1.70
2023-01-30T02:44:06.759Z,1.60
2023-01-30T02:46:48.193Z,1.50
2023-01-30T02:49:30.951Z,1.40
2023-01-30T02:52:01.640Z,1.30
2023-01-30T02:54:29.427Z,1.30
2023-01-30T02:57:00.732Z,1.20
2023-01-30T02:59:33.893Z,1.20
2023-01-30T03:02:31.528Z,1.20
2023-01-30T03:05:20.139Z,1.20
2023-01-30T03:08:24.125Z,1.20
2023-01-30T03:11:04.072Z,1.20
2023-01-30T03:13:55.265Z,1.50
2023-01-30T03:16:39.782Z,1.50
2023-01-30T03:19:12.626Z,1.40
2023-01-30T03:21:45.079Z,1.40
2023-01-30T03:24:14.177Z,1.40
2023-01-30T03:26:48.938Z,1.30
2023-01-30T03:29:16.667Z,1.20
2023-01-30T03:31:44.661Z,1.10
2023-01-30T03:34:12.472Z,1.20
2023-01-30T03:36:40.770Z,1.20
2023-01-30T03:39:09.047Z,1.30
2023-01-30T03:41:36.760Z,1.20
2023-01-30T03:44:04.663Z,1.10
2023-01-30T03:46:32.970Z,1.00
2023-01-30T03:49:00.708Z,0.90
2023-01-30T03:51:28.364Z,0.90
2023-01-30T03:53:56.792Z,0.80
2023-01-30T03:56:24.543Z,0.80
2023-01-30T03:58:52.327Z,0.60
2023-01-30T04:01:25.136Z,0.60
2023-01-30T04:03:53.089Z,0.80
2023-01-30T04:06:20.847Z,0.80
2023-01-30T04:08:48.718Z,0.90
2023-01-30T04:11:28.852Z,0.90
2023-01-30T04:13:56.577Z,0.90
2023-01-30T04:16:27.109Z,0.90
2023-01-30T04:19:12.984Z,0.80
2023-01-30T04:21:41.592Z,0.70
2023-01-30T04:24:09.503Z,0.70
2023-01-30T04:26:37.358Z,0.60
2023-01-30T04:29:06.087Z,0.70
2023-01-30T04:31:34.597Z,0.70
2023-01-30T04:34:06.630Z,0.70
2023-01-30T04:36:37.159Z,0.80
2023-01-30T04:39:05.203Z,0.80
2023-01-30T04:41:33.473Z,0.60
2023-01-30T04:44:02.230Z,0.50
2023-01-30T04:46:49.016Z,0.60
2023-01-30T04:49:17.407Z,0.70
2023-01-30T04:51:45.109Z,0.60
2023-01-30T04:54:12.989Z,0.60
2023-01-30T04:56:42.252Z,0.50
2023-01-30T04:59:09.980Z,0.50
2023-01-30T05:01:42.688Z,0.50
2023-01-30T05:04:10.575Z,0.30
2023-01-30T05:06:38.264Z,0.30
2023-01-30T05:09:06.974Z,0.40
2023-01-30T05:11:35.376Z,0.20
2023-01-30T05:14:03.054Z,0.30
2023-01-30T05:16:30.785Z,0.40
2023-01-30T05:18:58.397Z,0.40
2023-01-30T05:21:30.720Z,0.50
2023-01-30T05:23:58.462Z,0.60
2023-01-30T05:26:26.308Z,0.60
2023-01-30T05:28:56.040Z,0.50
2023-01-30T05:31:24.326Z,0.40
2023-01-30T05:33:52.720Z,0.40
2023-01-30T05:36:22.326Z,0.30
2023-01-30T05:38:50.131Z,0.30
2023-01-30T05:41:18.226Z,0.40
2023-01-30T05:43:50.497Z,0.50
2023-01-30T05:46:18.467Z,0.60
2023-01-30T05:48:46.367Z,0.60
2023-01-30T05:51:23.131Z,0.70
2023-01-30T05:53:51.498Z,0.70
2023-01-30T05:56:19.977Z,0.70
2023-01-30T05:58:52.122Z,0.70
2023-01-30T06:01:21.005Z,0.60
2023-01-30T06:03:48.844Z,0.50
2023-01-30T06:06:16.582Z,0.50
2023-01-30T06:08:44.705Z,0.50
2023-01-30T06:11:15.664Z,0.60
2023-01-30T06:13:44.119Z,0.60
2023-01-30T06:16:14.633Z,0.60
2023-01-30T06:18:42.429Z,0.60
2023-01-30T06:21:10.664Z,0.60
2023-01-30T06:23:39.165Z,0.60
2023-01-30T06:26:09.113Z,0.50
2023-01-30T06:28:38.681Z,0.40
2023-01-30T06:31:08.296Z,0.30
2023-01-30T06:33:36.322Z,0.20
2023-01-30T06:36:04.434Z,0.40
2023-01-30T06:38:32.216Z,0.60
2023-01-30T06:40:59.962Z,0.70
2023-01-30T06:43:27.592Z,0.70
2023-01-30T06:45:55.362Z,0.60
2023-01-30T06:48:23.137Z,0.40
2023-01-30T06:50:50.955Z,0.40
2023-01-30T06:53:18.873Z,0.40
2023-01-30T06:55:46.669Z,0.40
2023-01-30T06:58:15.647Z,0.40
2023-01-30T07:00:43.986Z,0.40
2023-01-30T07:03:13.724Z,0.70
2023-01-30T07:05:43.006Z,0.80
2023-01-30T07:08:11.305Z,0.70
2023-01-30T07:10:40.321Z,0.90
2023-01-30T07:13:08.020Z,0.90
2023-01-30T07:15:35.760Z,0.70
2023-01-30T07:18:03.559Z,0.70
2023-01-30T07:20:31.819Z,0.90
2023-01-30T07:22:59.782Z,0.80
2023-01-30T07:25:28.536Z,0.80
2023-01-30T07:28:02.178Z,0.90
2023-01-30T07:30:32.396Z,0.90
2023-01-30T07:33:00.702Z,1.00
2023-01-30T07:35:31.641Z,1.10
2023-01-30T07:37:59.456Z,1.10
2023-01-30T07:40:27.729Z,1.40
2023-01-30T07:43:07.219Z,1.40
2023-01-30T07:45:46.604Z,1.20
2023-01-30T07:48:16.869Z,1.50
2023-01-30T07:50:45.710Z,1.70
2023-01-30T07:53:15.979Z,1.70
2023-01-30T07:55:44.158Z,1.80
2023-01-30T07:58:14.858Z,1.80
2023-01-30T08:00:43.209Z,1.70
2023-01-30T08:03:16.041Z,1.70
2023-01-30T08:05:47.262Z,1.80
2023-01-30T08:08:15.311Z,1.60
2023-01-30T08:10:43.457Z,1.30
2023-01-30T08:13:11.328Z,1.20
2023-01-30T08:15:39.024Z,1.30
2023-01-30T08:18:10.228Z,1.50
2023-01-30T08:20:38.064Z,1.60
2023-01-30T08:23:06.228Z,1.80
2023-01-30T08:25:35.545Z,1.80
2023-01-30T08:28:04.621Z,1.90
2023-01-30T08:30:33.271Z,2.10
2023-01-30T08:33:01.017Z,2.30
2023-01-30T08:35:28.743Z,2.30
2023-01-30T08:37:56.404Z,2.40
2023-01-30T08:40:24.079Z,2.40
2023-01-30T08:42:52.192Z,2.40
2023-01-30T08:45:19.907Z,2.10
2023-01-30T08:47:47.636Z,2.30
2023-01-30T08:50:15.526Z,2.30
2023-01-30T08:52:43.279Z,2.30
2023-01-30T08:55:11.924Z,2.10
2023-01-30T08:57:39.694Z,2.00
2023-01-30T09:00:09.098Z,2.00
2023-01-30T09:02:37.194Z,2.10
2023-01-30T09:05:06.098Z,2.20
2023-01-30T09:07:34.089Z,2.20
2023-01-30T09:10:01.725Z,2.30
2023-01-30T09:12:30.884Z,2.40
2023-01-30T09:15:00.544Z,2.50
2023-01-30T09:17:28.412Z,2.70
2023-01-30T09:19:56.167Z,2.70
2023-01-30T09:22:23.992Z,2.90
2023-01-30T09:24:51.737Z,3.10
2023-01-30T09:27:19.807Z,3.10
2023-01-30T09:29:47.711Z,3.10
2023-01-30T09:32:15.416Z,3.30
2023-01-30T09:34:43.081Z,3.40
2023-01-30T09:37:10.715Z,3.50
2023-01-30T09:39:38.390Z,3.40
2023-01-30T09:42:06.150Z,3.60
2023-01-30T09:44:54.739Z,3.60
2023-01-30T09:47:56.159Z,3.60
2023-01-30T09:50:54.863Z,3.60
2023-01-30T09:53:31.793Z,3.80
2023-01-30T09:56:00.015Z,3.80
2023-01-30T09:58:52.282Z,3.70
2023-01-30T10:01:30.564Z,3.80
2023-01-30T10:04:17.773Z,3.90
2023-01-30T10:06:59.928Z,3.90
2023-01-30T10:09:42.809Z,3.90
2023-01-30T10:12:33.845Z,4.00
2023-01-30T10:15:36.680Z,3.90
2023-01-30T10:18:07.705Z,4.00
2023-01-30T10:21:06.226Z,4.00
2023-01-30T10:24:16.542Z,3.80
2023-01-30T10:26:44.630Z,4.00
2023-01-30T10:29:22.473Z,4.10
2023-01-30T10:32:19.231Z,4.10
2023-01-30T10:34:52.113Z,4.10
2023-01-30T10:37:29.961Z,4.20
2023-01-30T10:40:25.442Z,4.30
2023-01-30T10:43:04.373Z,4.40
2023-01-30T10:45:41.290Z,4.60
2023-01-30T10:48:45.774Z,4.60
2023-01-30T10:51:38.652Z,4.80
2023-01-30T10:54:20.768Z,5.00
2023-01-30T10:57:14.286Z,5.10
2023-01-30T10:59:59.742Z,5.10
2023-01-30T11:02:40.073Z,5.30
2023-01-30T11:05:15.910Z,5.40
2023-01-30T11:07:46.373Z,5.50
2023-01-30T11:10:23.756Z,5.60
2023-01-30T11:13:13.336Z,5.70
2023-01-30T11:15:42.967Z,5.80
2023-01-30T11:18:46.822Z,6.00
2023-01-30T11:21:08.674Z,6.10
2023-01-30T11:23:45.487Z,6.00
2023-01-30T11:26:45.621Z,6.20
2023-01-30T11:29:35.302Z,6.40
2023-01-30T11:32:26.369Z,6.60
2023-01-30T11:35:25.409Z,6.80
2023-01-30T11:37:53.801Z,7.00
2023-01-30T11:40:28.274Z,7.20
2023-01-30T11:43:06.718Z,7.30
2023-01-30T11:45:37.926Z,7.40
2023-01-30T11:48:31.497Z,7.30
2023-01-30T11:51:04.686Z,7.30
2023-01-30T11:53:54.439Z,7.40
2023-01-30T11:56:38.601Z,7.10
2023-01-30T11:59:28.216Z,7.40
2023-01-30T12:02:09.813Z,7.70
2023-01-30T12:04:38.073Z,7.90
2023-01-30T12:07:21.279Z,8.00
2023-01-30T12:09:50.602Z,7.90
2023-01-30T12:12:24.374Z,8.10
2023-01-30T12:14:53.646Z,8.30
2023-01-30T12:17:35.439Z,8.50
2023-01-30T12:20:06.728Z,8.60
2023-01-30T12:22:46.833Z,8.40
2023-01-30T12:25:16.815Z,8.60
2023-01-30T12:27:49.347Z,8.50
2023-01-30T12:30:27.196Z,8.60
2023-01-30T12:35:40.211Z,8.80
2023-01-30T12:38:29.231Z,8.70
2023-01-30T12:41:35.770Z,8.70
2023-01-30T12:44:18.587Z,8.60
2023-01-30T12:47:11.127Z,8.80
2023-01-30T12:50:02.466Z,8.80
2023-01-30T12:52:48.256Z,8.90
2023-01-30T12:55:50.963Z,8.80
2023-01-30T12:58:43.767Z,8.80
2023-01-30T13:01:35.964Z,9.10
2023-01-30T13:04:24.904Z,9.00
2023-01-30T13:07:11.972Z,9.00
2023-01-30T13:09:50.135Z,8.90
2023-01-30T13:12:28.017Z,8.80
2023-01-30T13:15:11.070Z,9.10
2023-01-30T13:17:41.571Z,9.20
2023-01-30T13:20:44.941Z,8.90
2023-01-30T13:23:19.961Z,9.10
2023-01-30T13:25:54.742Z,9.40
2023-01-30T13:28:26.599Z,9.40
2023-01-30T13:30:56.573Z,9.30
2023-01-30T13:33:32.406Z,9.10
2023-01-30T13:36:18.218Z,9.10
2023-01-30T13:38:59.635Z,9.10
2023-01-30T13:41:33.016Z,9.10
2023-01-30T13:44:03.328Z,9.40
2023-01-30T13:46:33.272Z,9.60
2023-01-30T13:49:08.768Z,9.70
2023-01-30T13:51:55.007Z,9.60
2023-01-30T13:54:22.657Z,9.30
2023-01-30T13:57:11.613Z,9.30
2023-01-30T14:00:10.108Z,9.10
2023-01-30T14:03:03.985Z,9.50
2023-01-30T14:06:01.164Z,9.30
2023-01-30T14:08:33.344Z,9.50
2023-01-30T14:11:02.297Z,9.30
2023-01-30T14:13:31.422Z,9.10
2023-01-30T14:16:02.853Z,9.30
2023-01-30T14:18:38.814Z,9.40
2023-01-30T14:21:24.667Z,9.40
2023-01-30T14:24:01.729Z,9.10
2023-01-30T14:26:53.347Z,9.20
2023-01-30T14:29:56.942Z,9.20
2023-01-30T14:32:25.132Z,9.10
2023-01-30T14:35:02.087Z,8.90
2023-01-30T14:37:46.822Z,8.80
2023-01-30T14:40:23.889Z,8.80
2023-01-30T14:43:14.880Z,9.00
2023-01-30T14:45:48.435Z,9.10
2023-01-30T14:48:34.299Z,9.10
2023-01-30T14:51:33.885Z,9.00
2023-01-30T14:54:07.793Z,8.90
2023-01-30T14:56:54.500Z,9.00
2023-01-30T14:59:22.353Z,9.00
2023-01-30T15:02:22.921Z,8.90
2023-01-30T15:04:58.668Z,9.00
2023-01-30T15:07:46.863Z,9.00
2023-01-30T15:10:20.343Z,8.90
2023-01-30T15:13:20.428Z,8.70
2023-01-30T15:16:12.633Z,8.60
2023-01-30T15:19:04.662Z,8.60
2023-01-30T15:21:41.811Z,8.70
2023-01-30T15:24:37.914Z,8.70
2023-01-30T15:27:31.787Z,8.60
2023-01-30T15:30:17.616Z,8.70
2023-01-30T15:32:46.392Z,8.70
2023-01-30T15:35:17.382Z,8.60
2023-01-30T15:37:51.886Z,8.60
2023-01-30T15:40:22.482Z,8.60
2023-01-30T15:43:35.330Z,8.50
2023-01-30T15:46:18.033Z,8.40
2023-01-30T15:48:57.854Z,8.40
2023-01-30T15:51:32.121Z,8.30
2023-01-30T15:54:04.107Z,8.10
2023-01-30T15:56:32.860Z,8.10
2023-01-30T15:59:01.898Z,8.10
2023-01-30T16:01:30.512Z,8.10
2023-01-30T16:04:00.474Z,8.20
2023-01-30T16:06:38.240Z,8.10
2023-01-30T16:09:23.891Z,8.10
2023-01-30T16:11:51.837Z,7.90
2023-01-30T16:14:22.223Z,7.70
2023-01-30T16:17:01.927Z,7.70
2023-01-30T16:19:32.801Z,7.80
2023-01-30T16:22:17.672Z,7.80
2023-01-30T16:24:52.577Z,7.70
2023-01-30T16:27:30.398Z,7.60
2023-01-30T16:30:07.699Z,7.70
2023-01-30T16:32:36.612Z,7.70
2023-01-30T16:35:28.171Z,7.60
2023-01-30T16:37:58.767Z,7.50
2023-01-30T16:40:42.635Z,7.50
2023-01-30T16:43:24.008Z,7.40
2023-01-30T16:45:54.896Z,7.40
2023-01-30T16:48:33.349Z,7.40
2023-01-30T16:51:10.112Z,7.40
2023-01-30T16:53:46.624Z,7.20
2023-01-30T16:56:17.629Z,7.20
2023-01-30T16:58:48.991Z,7.10
2023-01-30T17:01:19.282Z,6.90
2023-01-30T17:03:59.254Z,6.80
2023-01-30T17:06:36.926Z,6.70
2023-01-30T17:09:26.974Z,6.60
2023-01-30T17:11:54.712Z,6.60
2023-01-30T17:14:24.873Z,6.40
2023-01-30T17:17:04.015Z,6.30
2023-01-30T17:19:31.870Z,6.30
2023-01-30T17:22:03.251Z,6.30
2023-01-30T17:24:31.386Z,6.10
2023-01-30T17:27:02.670Z,6.10
2023-01-30T17:29:42.701Z,6.10
2023-01-30T17:32:13.497Z,6.00
2023-01-30T17:34:41.608Z,6.10
2023-01-30T17:37:19.956Z,6.20
2023-01-30T17:39:48.162Z,6.10
2023-01-30T17:42:22.661Z,5.90
2023-01-30T17:44:50.593Z,5.90
2023-01-30T17:47:18.404Z,5.80
2023-01-30T17:49:46.130Z,5.90
2023-01-30T17:52:14.408Z,5.60
2023-01-30T17:54:42.301Z,5.40
2023-01-30T17:57:15.535Z,5.40
2023-01-30T17:59:43.580Z,5.40
2023-01-30T18:02:11.363Z,5.40
2023-01-30T18:04:42.634Z,5.40
2023-01-30T18:07:14.488Z,5.20
2023-01-30T18:09:42.374Z,5.10
2023-01-30T18:12:10.219Z,5.10
2023-01-30T18:14:38.040Z,5.10
2023-01-30T18:17:05.778Z,5.20
2023-01-30T18:19:33.646Z,5.20
2023-01-30T18:22:01.620Z,5.20
2023-01-30T18:24:29.432Z,5.10
2023-01-30T18:26:57.180Z,5.00
2023-01-30T18:29:24.872Z,4.80
2023-01-30T18:31:52.754Z,4.80
2023-01-30T18:34:20.640Z,4.70
2023-01-30T18:36:48.391Z,4.60
2023-01-30T18:39:16.163Z,4.50
2023-01-30T18:41:43.956Z,4.70
2023-01-30T18:44:11.620Z,4.70
2023-01-30T18:46:39.694Z,4.70
2023-01-30T18:49:08.496Z,4.80
2023-01-30T18:51:39.003Z,4.70
2023-01-30T18:54:07.103Z,4.70
2023-01-30T18:56:35.396Z,4.80
2023-01-30T18:59:05.415Z,4.70
2023-01-30T19:01:39.126Z,4.80
2023-01-30T19:04:09.695Z,4.80
2023-01-30T19:06:40.355Z,4.80
2023-01-30T19:09:12.685Z,4.70
2023-01-30T19:11:59.387Z,4.60
2023-01-30T19:14:27.174Z,4.50
2023-01-30T19:16:54.997Z,4.60
2023-01-30T19:19:25.967Z,4.60
2023-01-30T19:21:53.779Z,4.60
2023-01-30T19:24:21.465Z,4.60
2023-01-30T19:26:49.939Z,4.70
2023-01-30T19:29:18.706Z,4.60
2023-01-30T19:31:50.292Z,4.50
2023-01-30T19:34:18.362Z,4.50
2023-01-30T19:36:46.941Z,4.60
2023-01-30T19:39:14.689Z,4.50
2023-01-30T19:41:42.432Z,4.50
2023-01-30T19:44:12.618Z,4.50
2023-01-30T19:46:40.625Z,4.40
2023-01-30T19:49:08.742Z,4.50
2023-01-30T19:51:36.622Z,4.50
2023-01-30T19:54:07.221Z,4.50
2023-01-30T19:56:36.702Z,4.40
2023-01-30T19:59:05.737Z,4.20
2023-01-30T20:01:37.137Z,4.00
2023-01-30T20:04:05.661Z,3.90
2023-01-30T20:06:36.075Z,3.80
2023-01-30T20:09:11.858Z,3.90
2023-01-30T20:11:42.161Z,3.90
2023-01-30T20:14:11.263Z,3.70
2023-01-30T20:16:39.236Z,3.70
2023-01-30T20:19:11.368Z,3.60
2023-01-30T20:21:39.454Z,3.50
2023-01-30T20:24:08.016Z,3.50
2023-01-30T20:26:39.848Z,3.60
2023-01-30T20:29:10.663Z,3.60
2023-01-30T20:31:39.861Z,3.60
2023-01-30T20:34:11.207Z,3.40
2023-01-30T20:36:39.183Z,3.40
2023-01-30T20:39:08.936Z,3.40
2023-01-30T20:41:38.907Z,3.50
2023-01-30T20:44:09.894Z,3.50
2023-01-30T20:46:41.968Z,3.50
2023-01-30T20:49:22.028Z,3.50
2023-01-30T20:51:53.045Z,3.60
2023-01-30T20:54:23.503Z,3.40
2023-01-30T20:56:54.502Z,3.30
2023-01-30T20:59:25.027Z,3.40
2023-01-30T21:01:54.366Z,3.40
2023-01-30T21:04:24.576Z,3.40
2023-01-30T21:06:52.783Z,3.50
2023-01-30T21:09:23.148Z,3.40
2023-01-30T21:11:53.598Z,3.50
2023-01-30T21:14:22.210Z,3.50
2023-01-30T21:16:53.229Z,3.40
2023-01-30T21:19:24.149Z,3.50
2023-01-30T21:21:57.742Z,3.40
2023-01-30T21:24:29.065Z,3.50
2023-01-30T21:26:58.393Z,3.40
2023-01-30T21:29:29.822Z,3.30
2023-01-30T21:32:00.132Z,3.30
2023-01-30T21:34:28.821Z,3.30
2023-01-30T21:37:15.867Z,3.40
2023-01-30T21:40:02.555Z,3.40
2023-01-30T21:42:49.010Z,3.40
2023-01-30T21:45:18.154Z,3.40
2023-01-30T21:47:50.189Z,3.50
2023-01-30T21:50:18.800Z,3.40
2023-01-30T21:52:46.922Z,3.30
2023-01-30T21:55:15.275Z,3.20
2023-01-30T21:57:44.415Z,3.10
2023-01-30T22:00:13.468Z,3.10
2023-01-30T22:02:41.535Z,3.10
2023-01-30T22:05:10.649Z,3.10
2023-01-30T22:07:41.519Z,3.20
2023-01-30T22:10:09.999Z,3.20
2023-01-30T22:12:40.303Z,3.20
2023-01-30T22:15:10.424Z,3.20
2023-01-30T22:17:38.705Z,3.20
2023-01-30T22:20:07.085Z,3.20
2023-01-30T22:22:36.283Z,3.20
2023-01-30T22:25:04.876Z,3.10
2023-01-30T22:27:32.960Z,3.10
2023-01-30T22:30:00.933Z,3.20
2023-01-30T22:32:28.872Z,3.10
2023-01-30T22:34:56.743Z,3.20
2023-01-30T22:37:24.952Z,3.20
2023-01-30T22:39:52.714Z,3.20
2023-01-30T22:42:20.653Z,3.10
2023-01-30T22:44:48.805Z,3.10
2023-01-30T22:47:16.788Z,3.00
2023-01-30T22:49:44.746Z,3.00
2023-01-30T22:52:12.630Z,3.00
2023-01-30T22:54:41.095Z,2.90
2023-01-30T22:57:09.163Z,2.90
2023-01-30T22:59:37.147Z,2.80
2023-01-30T23:02:05.033Z,3.00
2023-01-30T23:04:33.187Z,3.00
2023-01-30T23:07:01.128Z,2.70
2023-01-30T23:09:29.417Z,2.50
2023-01-30T23:12:17.124Z,2.60
2023-01-30T23:14:45.281Z,2.60
2023-01-30T23:17:31.743Z,2.60
2023-01-30T23:19:59.941Z,2.70
2023-01-30T23:22:27.962Z,2.70
2023-01-30T23:24:55.820Z,2.80
2023-01-30T23:27:23.680Z,2.70
2023-01-30T23:29:51.348Z,2.80
2023-01-30T23:32:20.335Z,2.80
2023-01-30T23:34:48.497Z,2.70
2023-01-30T23:37:16.937Z,2.70
2023-01-30T23:39:45.757Z,2.70
2023-01-30T23:42:13.569Z,2.70
2023-01-30T23:44:41.414Z,2.80
2023-01-30T23:47:09.083Z,2.70
2023-01-30T23:49:36.785Z,2.60
2023-01-30T23:52:04.497Z,2.50
2023-01-30T23:54:32.179Z,2.40
2023-01-30T23:56:59.823Z,2.40
2023-01-30T23:59:27.509Z,2.50
